• Join FlightAware (Why Join?)
  • Login
  • US Flag 
09:18PM EDT


 

Airport Tracker/Info


-or-


 

Live Flight TrackerFlight Track Log ✈ AWE621 ✈ 17-Jun-2014 ✈ KTPA - KPHX

Flight Track Log - Related Links

Times and Time Zones

All times are in EDT time to prevent confusion due to time zone crossing. See the AWE621 flight status page for this flight to view local times or setup timezone preferences in your user account.

Time Position Orientation Groundspeed Altitude Reporting Facility
EDT Latitude Longitude Course Direction KTS MPH feet Rate Location/Type
07:53AM 28.0233 -82.5433 261° West 175 201 1,600  Level Miami Center
07:54AM 28.0667 -82.5500 352° North 222 255 2,300 2,100 Climbing Tampa TRACON
07:57AM 28.0667 -82.7000 241° Southwest 291 335 9,100 2,100 Climbing Tampa TRACON
07:58AM 27.6394 -83.2246 261° West  Level FlightAware Approximate
07:58AM 28.0000 -82.7500 214° Southwest 313 360 10,700  Level Tampa TRACON
08:00AM 27.7894 -82.9381 238° Southwest 364 419 13,400 1,320 Climbing Miami Center
08:05AM 27.6228 -83.3003 290° West 388 447 19,700 1,440 Climbing Miami Center
08:06AM 27.6428 -83.4319 280° West 422 486 20,900 1,140 Climbing Miami Center
08:08AM 27.6658 -83.7050 276° West 437 503 23,300 1,200 Climbing Miami Center
08:09AM 28.1081 -83.9435 290° West  Level Estimated
08:09AM 27.6783 -83.8769 275° West 456 525 24,600  Level Miami Center
08:10AM 28.1470 -84.0682 290° West  Level Estimated
08:10AM 27.6911 -84.0203 276° West 458 527 25,800  Level Miami Center
08:11AM 27.7019 -84.1647 275° West 459 528 26,900 1,020 Climbing Miami Center
08:12AM 27.7153 -84.3094 276° West 462 532 27,900 840 Climbing Miami Center
08:13AM 27.7269 -84.4561 275° West 465 535 28,700 1,020 Climbing Miami Center
08:14AM 27.7453 -84.6025 278° West 471 542 30,100 1,020 Climbing Miami Center
08:15AM 27.7783 -84.7419 285° West 462 532 30,800 1,020 Climbing Miami Center
08:16AM 27.8069 -84.8831 283° West 462 532 32,200 1,200 Climbing Miami Center
08:17AM 27.8397 -85.0353 284° West 450 518 33,300 780 Climbing Miami Center
08:18AM 27.8689 -85.1736 283° West 450 518 33,900 300 Climbing Miami Center
08:19AM 27.9014 -85.3078 285° West 445 512 34,000 60 Climbing Miami Center
08:20AM 27.9278 -85.3956 289° West 448 516 34,000  Level Houston Center
08:20AM 27.9528 -85.4861 287° West 446 513 34,000  Level Jacksonville Center
08:21AM 27.9919 -85.6142 289° West 445 512 34,000  Level Jacksonville Center
08:22AM 28.0328 -85.7517 289° West 445 512 34,000  Level Jacksonville Center
08:23AM 28.0714 -85.8797 289° West 445 512 34,000 -60 Level Jacksonville Center
08:24AM 28.1103 -86.0078 289° West 440 506 33,900  Descending Jacksonville Center
08:25AM 28.1506 -86.1433 289° West 440 506 34,000  Climbing Jacksonville Center
08:26AM 28.1892 -86.2717 289° West 448 516 34,000  Level Jacksonville Center
08:27AM 28.2292 -86.4072 289° West 448 516 34,000  Level Jacksonville Center
08:28AM 28.2692 -86.5406 289° West 433 498 34,000  Level Jacksonville Center
08:29AM 28.3092 -86.6811 288° West 443 510 34,000  Level Jacksonville Center
08:30AM 28.3447 -86.8097 287° West 443 510 34,000  Level Jacksonville Center
08:31AM 28.3844 -86.9411 289° West 450 518 34,000 -60 Level Jacksonville Center
08:32AM 28.4242 -87.0725 289° West 442 509 33,900  Descending Jacksonville Center
08:33AM 28.4617 -87.1992 289° West 428 493 34,000  Climbing Jacksonville Center
08:34AM 28.4906 -87.3017 288° West 439 505 34,000  Level Houston Center
08:35AM 28.5278 -87.4333 288° West 439 505 34,000  Level Houston Center
08:36AM 28.5650 -87.5644 288° West 439 505 34,000  Level Houston Center
08:37AM 28.6033 -87.6958 288° West 439 505 34,000  Level Houston Center
08:38AM 28.6475 -87.8542 288° West 438 504 34,000  Level Houston Center
08:39AM 28.6850 -87.9839 288° West 437 503 34,000  Level Houston Center
08:40AM 28.7178 -88.1050 287° West 437 503 34,000  Level Houston Center
08:41AM 28.7558 -88.2361 288° West 437 503 34,000  Level Houston Center
08:42AM 28.7989 -88.3950 287° West 437 503 34,000  Level Houston Center
08:43AM 28.8361 -88.5256 288° West 437 503 34,000  Level Houston Center
08:44AM 28.8708 -88.6564 287° West 436 502 34,000  Level Houston Center
08:45AM 28.9017 -88.7897 285° West 435 501 34,000  Level Houston Center
08:46AM 28.9261 -88.9256 282° West 436 502 34,000 -60 Level Houston Center
08:47AM 28.9511 -89.0619 282° West 436 502 33,900  Descending Houston Center
08:48AM 28.9803 -89.2247 282° West 436 502 34,000  Climbing Houston Center
08:49AM 29.0061 -89.3597 282° West 436 502 34,000 -60 Level Houston Center
08:50AM 29.0303 -89.4947 282° West 436 502 33,900 -60 Descending Houston Center
08:51AM 29.0539 -89.6314 281° West 436 502 33,900  Level Houston Center
08:53AM 29.0789 -89.7689 282° West 441 507 34,000  Climbing Houston Center
08:54AM 29.1028 -89.9044 281° West 439 505 34,000  Level Houston Center
08:55AM 29.1272 -90.0403 282° West 437 503 34,000  Level Houston Center
08:56AM 29.1553 -90.2014 281° West 434 499 34,000 -60 Level Houston Center
08:57AM 29.1794 -90.3344 282° West 430 495 33,900  Descending Houston Center
08:58AM 29.2017 -90.4692 281° West 430 495 34,000  Climbing Houston Center
08:59AM 29.2269 -90.6039 282° West 430 495 34,000  Level Houston Center
09:01AM 29.2731 -90.8739 281° West 433 498 34,000  Level Houston Center
09:02AM 29.2997 -91.0353 281° West 432 497 34,000  Level Houston Center
09:03AM 29.3225 -91.1692 281° West 432 497 34,000 -60 Level Houston Center
09:04AM 29.3456 -91.3011 281° West 427 491 33,900  Descending Houston Center
09:05AM 29.3681 -91.4347 281° West 427 491 34,000  Climbing Houston Center
09:06AM 29.3903 -91.5686 281° West 427 491 34,000  Level Houston Center
09:07AM 29.4147 -91.7239 280° West 426 490 34,000  Level Houston Center
09:08AM 29.4425 -91.8550 284° West 426 490 34,000  Level Houston Center
09:09AM 29.4728 -91.9869 285° West 426 490 34,000  Level Houston Center
09:10AM 29.5011 -92.1189 284° West 426 490 34,000  Level Houston Center
09:11AM 29.5303 -92.2497 284° West 426 490 34,000 -60 Level Houston Center
09:12AM 29.5589 -92.3814 284° West 426 490 33,900  Descending Houston Center
09:13AM 29.5922 -92.5392 284° West 426 490 34,000  Climbing Houston Center
09:14AM 29.6211 -92.6714 284° West 426 490 34,000  Level Houston Center
09:15AM 29.6500 -92.8042 284° West 426 490 34,000  Level Houston Center
09:16AM 29.6778 -92.9369 284° West 426 490 34,000  Level Houston Center
09:17AM 29.7058 -93.0703 284° West 426 490 34,000  Level Houston Center
09:18AM 29.7342 -93.2031 284° West 426 490 34,000  Level Houston Center
09:19AM 29.7672 -93.3622 283° West 427 491 34,000  Level Houston Center
09:20AM 29.7958 -93.4964 284° West 427 491 34,000  Level Houston Center
09:21AM 29.8247 -93.6311 284° West 428 493 34,000  Level Houston Center
09:23AM 29.8519 -93.7650 283° West 428 493 34,000  Level Houston Center
09:24AM 29.8794 -93.9000 283° West 428 493 34,000  Level Houston Center
09:25AM 29.9072 -94.0347 283° West 429 494 34,000  Level Houston Center
09:26AM 29.9344 -94.1686 283° West 429 494 34,000  Level Houston Center
09:27AM 29.9667 -94.3286 283° West 429 494 34,000 -60 Level Houston Center
09:28AM 29.9942 -94.4606 284° West 427 491 33,900  Descending Houston Center
09:29AM 30.0175 -94.5817 283° West 425 489 34,000  Climbing Houston Center
09:30AM 30.0481 -94.7400 283° West 425 489 34,000  Level Houston Center
09:31AM 30.0744 -94.8728 283° West 425 489 34,000  Level Houston Center
09:32AM 30.1000 -95.0036 283° West 425 489 34,000  Level Houston Center
09:33AM 30.1256 -95.1358 283° West 425 489 34,000  Level Houston Center
09:34AM 30.1511 -95.2678 283° West 425 489 34,000  Level Houston Center
09:35AM 30.1814 -95.4269 282° West 424 488 34,000  Level Houston Center
09:36AM 30.2061 -95.5597 282° West 425 489 34,000  Level Houston Center
09:37AM 30.2319 -95.6914 283° West 424 488 34,000  Level Houston Center
09:38AM 30.2569 -95.8242 282° West 424 488 34,000  Level Houston Center
09:39AM 30.2819 -95.9575 282° West 424 488 34,000  Level Houston Center
09:40AM 30.3094 -96.1044 282° West 425 489 34,000  Level Houston Center
09:41AM 30.3344 -96.2389 282° West 425 489 34,000  Level Houston Center
09:42AM 30.3597 -96.3733 282° West 427 491 34,000  Level Houston Center
09:43AM 30.3881 -96.5364 281° West 430 495 34,000  Level Houston Center
09:44AM 30.4128 -96.6711 282° West 429 494 34,000  Level Houston Center
09:45AM 30.4367 -96.8067 282° West 430 495 34,000  Level Houston Center
09:46AM 30.4619 -96.9422 282° West 430 495 34,000  Level Houston Center
09:47AM 30.4853 -97.0794 281° West 430 495 34,000  Level Houston Center
09:48AM 30.5100 -97.2150 282° West 430 495 34,000  Level Houston Center
09:49AM 30.5392 -97.3778 282° West 429 494 34,000  Level Houston Center
09:51AM 30.5622 -97.5136 281° West 429 494 34,000  Level Houston Center
09:52AM 30.5861 -97.6494 282° West 429 494 34,000  Level Houston Center
09:53AM 30.6094 -97.7839 281° West 427 491 34,000  Level Houston Center
09:54AM 30.6322 -97.9178 281° West 425 489 34,000  Level Houston Center
09:55AM 30.6558 -98.0531 282° West 425 489 34,000  Level Houston Center
09:56AM 30.6778 -98.1878 281° West 425 489 34,000  Level Houston Center
09:57AM 30.7061 -98.3506 281° West 425 489 34,000  Level Houston Center
09:58AM 30.7289 -98.4850 281° West 425 489 34,000  Level Houston Center
09:59AM 30.7511 -98.6194 281° West 425 489 34,000  Level Houston Center
10:00AM 30.7728 -98.7533 281° West 425 489 34,000  Level Houston Center
10:01AM 30.7944 -98.8869 281° West 422 486 34,000  Level Houston Center
10:02AM 30.8208 -99.0458 281° West 420 483 34,000 -60 Level Houston Center
10:03AM 30.8419 -99.1753 281° West 420 483 33,900 -60 Descending Houston Center
10:04AM 30.8625 -99.3072 280° West 419 482 33,900  Level Houston Center
10:05AM 30.8844 -99.4406 281° West 419 482 34,000  Climbing Houston Center
10:06AM 30.9058 -99.5753 281° West 421 484 34,000  Level Houston Center
10:07AM 30.9308 -99.7353 280° West 421 484 34,000  Level Houston Center
10:08AM 30.9508 -99.8683 280° West 420 483 34,000 -60 Level Houston Center
10:09AM 30.9714 -99.9986 280° West 418 481 33,900 -60 Descending Houston Center
10:10AM 30.9911 -100.1319 280° West 418 481 33,900  Level Houston Center
10:11AM 31.0111 -100.2633 280° West 418 481 34,000  Climbing Houston Center
10:12AM 31.0356 -100.4214 280° West 417 480 34,000  Level Houston Center
10:13AM 31.0556 -100.5547 280° West 419 482 34,000  Level Houston Center
10:14AM 31.0758 -100.6881 280° West 421 484 34,000  Level Houston Center
10:15AM 31.0947 -100.8231 279° West 422 486 34,000  Level Houston Center
10:16AM 31.1147 -100.9578 280° West 423 487 34,000  Level Houston Center
10:17AM 31.1392 -101.1194 280° West 423 487 34,000 -60 Level Houston Center
10:18AM 31.1572 -101.2522 279° West 421 484 33,900 -60 Descending Houston Center
10:20AM 31.1753 -101.3814 279° West 420 483 33,900  Level Houston Center
10:21AM 31.1958 -101.5139 280° West 420 483 34,000  Climbing Houston Center
10:22AM 31.2183 -101.6742 279° West 419 482 34,000 -60 Level Houston Center
10:23AM 31.2358 -101.8072 279° West 419 482 33,900  Descending Houston Center
10:23AM 31.2475 -101.8853 280° West 417 480 34,000 60 Climbing Albuquerque Center
10:24AM 31.2664 -102.0214 279° West 417 480 34,000  Level Albuquerque Center
10:25AM 31.2853 -102.1544 279° West 417 480 34,000  Level Albuquerque Center
10:26AM 31.3022 -102.2925 278° West 418 481 34,000  Level Albuquerque Center
10:27AM 31.3206 -102.4306 279° West 427 491 34,000  Level Albuquerque Center
10:28AM 31.3397 -102.5753 279° West 421 484 34,000  Level Albuquerque Center
10:30AM 31.3636 -102.7619 279° West 420 483 34,000  Level Houston Center
10:30AM 31.3747 -102.8439 279° West 421 484 34,000  Level Albuquerque Center
10:31AM 31.3711 -102.9764 268° West 413 475 34,000  Level Albuquerque Center
10:33AM 31.2856 -103.0994 231° Southwest 413 475 34,000 -60 Level Albuquerque Center
10:34AM 31.2061 -103.1939 225° Southwest 412 474 33,900 -60 Descending Albuquerque Center
10:35AM 31.1261 -103.2883 225° Southwest 411 473 33,900  Level Albuquerque Center
10:36AM 31.0467 -103.3831 226° Southwest 411 473 34,000  Climbing Albuquerque Center
10:37AM 30.9675 -103.4781 226° Southwest 411 473 34,000  Level Albuquerque Center
10:38AM 30.8900 -103.5758 227° Southwest 411 473 34,000  Level Albuquerque Center
10:39AM 30.8892 -103.7347 270° West 425 489 34,000  Level Albuquerque Center
10:40AM 30.9361 -103.8600 294° West 425 489 34,000 -60 Level Albuquerque Center
10:41AM 30.9819 -103.9836 293° West 421 484 33,900 -60 Descending Albuquerque Center
10:42AM 31.0275 -104.1053 294° West 417 480 33,900  Level Albuquerque Center
10:43AM 31.0728 -104.2289 293° West 416 479 34,000  Climbing Albuquerque Center
10:44AM 31.1286 -104.3772 294° West 416 479 34,000  Level Albuquerque Center
10:45AM 31.1750 -104.5008 294° West 415 478 34,000  Level Albuquerque Center
10:46AM 31.2181 -104.6233 292° West 415 478 34,000  Level Albuquerque Center
10:47AM 31.2689 -104.7472 296° West 418 481 34,000  Level Albuquerque Center
10:48AM 31.3175 -104.8692 295° West 418 481 34,000  Level Albuquerque Center
10:49AM 31.3569 -104.9931 290° West 413 475 34,000 -60 Level Albuquerque Center
10:50AM 31.4131 -105.1392 294° West 412 474 33,900  Descending Albuquerque Center
10:51AM 31.4589 -105.2614 294° West 412 474 34,000  Climbing Albuquerque Center
10:52AM 31.4989 -105.3961 289° West 412 474 34,000  Level Albuquerque Center
10:53AM 31.5450 -105.5194 294° West 413 475 34,000  Level Albuquerque Center
10:54AM 31.5922 -105.6511 293° West 410 472 34,000  Level Albuquerque Center
10:55AM 31.6364 -105.7739 293° West 410 472 34,000  Level Albuquerque Center
10:56AM 31.6803 -105.8969 293° West 409 471 34,000  Level Albuquerque Center
10:57AM 31.7256 -106.0272 292° West 405 466 34,000  Level Albuquerque Center
10:58AM 31.7692 -106.1500 293° West 406 467 34,000  Level Albuquerque Center
10:59AM 31.8106 -106.2636 293° West 406 467 34,000  Level Albuquerque Center
11:00AM 31.8361 -106.3922 283° West 407 468 34,000  Level Albuquerque Center
11:01AM 31.8622 -106.5478 281° West 406 467 34,000  Level Albuquerque Center
11:03AM 31.8819 -106.6786 280° West 405 466 34,000  Level Albuquerque Center
11:04AM 31.9031 -106.8069 281° West 403 464 34,000  Level Albuquerque Center
11:05AM 31.9225 -106.9344 280° West 399 459 34,000  Level Albuquerque Center
11:06AM 31.9433 -107.0647 281° West 399 459 34,000  Level Albuquerque Center
11:07AM 31.9633 -107.1944 280° West 399 459 34,000  Level Albuquerque Center
11:08AM 31.9831 -107.3256 280° West 400 460 34,000  Level Albuquerque Center
11:09AM 32.0067 -107.4822 280° West 401 461 34,000  Level Albuquerque Center
11:10AM 32.0269 -107.6122 280° West 402 463 34,000 -60 Level Albuquerque Center
11:11AM 32.0467 -107.7428 280° West 402 463 33,900  Descending Albuquerque Center
11:12AM 32.0664 -107.8728 280° West 402 463 34,000  Climbing Albuquerque Center
11:13AM 32.0858 -108.0036 280° West 402 463 34,000  Level Albuquerque Center
11:14AM 32.1058 -108.1344 280° West 402 463 34,000 -60 Level Albuquerque Center
11:15AM 32.1297 -108.2889 280° West 403 464 33,900 -60 Descending Albuquerque Center
11:16AM 32.1469 -108.4181 279° West 402 463 33,900  Level Albuquerque Center
11:17AM 32.1644 -108.5339 280° West 400 460 34,000  Climbing Albuquerque Center
11:18AM 32.1836 -108.6642 280° West 400 460 34,000  Level Albuquerque Center
11:19AM 32.2053 -108.8175 280° West 400 460 34,000  Level Albuquerque Center
11:20AM 32.2231 -108.9461 279° West 399 459 34,000  Level Albuquerque Center
11:21AM 32.2411 -109.0747 279° West 397 457 34,000  Level Albuquerque Center
11:22AM 32.2597 -109.2025 280° West 397 457 34,000  Level Albuquerque Center
11:23AM 32.2839 -109.3300 283° West 397 457 34,000  Level Albuquerque Center
11:24AM 32.3150 -109.4558 286° West 396 456 34,000  Level Albuquerque Center
11:25AM 32.3519 -109.6064 286° West 397 457 34,000  Level Albuquerque Center
11:26AM 32.3814 -109.7325 285° West 397 457 34,000  Level Albuquerque Center
11:27AM 32.4111 -109.8586 286° West 397 457 34,000 -300 Level Albuquerque Center
11:28AM 32.4439 -109.9881 287° West 402 463 33,500 -780 Descending Albuquerque Center
11:29AM 32.4747 -110.1169 286° West 403 464 32,400 -1,620 Descending Albuquerque Center
11:30AM 32.5061 -110.2472 286° West 407 468 30,200 -2,460 Descending Albuquerque Center
11:31AM 32.5422 -110.3997 286° West 407 468 27,400 -2,460 Descending Albuquerque Center
11:33AM 32.5719 -110.5233 286° West 397 457 25,200 -1,920 Descending Albuquerque Center
11:34AM 32.6147 -110.6367 294° West 389 448 23,400 -1,500 Descending Albuquerque Center
11:35AM 32.6692 -110.7394 302° West 371 427 22,100 -1,260 Descending Albuquerque Center
11:36AM 32.7222 -110.8383 303° West 361 415 20,900 -1,200 Descending Albuquerque Center
11:37AM 32.7756 -110.9364 303° West 357 411 19,700 -1,320 Descending Albuquerque Center
11:38AM 32.8361 -111.0569 301° West 357 411 18,200 -1,320 Descending Albuquerque Center
11:39AM 32.8850 -111.1517 302° West 344 396 17,000 -1,200 Descending Albuquerque Center
11:40AM 32.9297 -111.2436 300° West 327 376 15,800 -1,080 Descending Albuquerque Center
11:41AM 32.9714 -111.3372 298° West 321 369 14,800 -1,080 Descending Albuquerque Center
11:42AM 33.0169 -111.4317 300° West 324 373 13,600 -1,140 Descending Albuquerque Center
11:43AM 33.0656 -111.5258 302° West 332 382 12,500 -1,140 Descending Albuquerque Center
11:44AM 33.1219 -111.6383 301° West 331 381 11,300 -1,020 Descending Albuquerque Center
11:45AM 33.1692 -111.7311 301° West 331 381 10,400 -780 Descending Albuquerque Center
11:46AM 33.2133 -111.8178 301° West 306 352 9,700 -600 Descending Albuquerque Center
11:47AM 33.2536 -111.8983 301° West 289 333 9,200 -540 Descending Albuquerque Center
11:48AM 33.2906 -111.9703 302° West 258 297 8,700 -780 Descending Albuquerque Center
11:49AM 33.3239 -112.0381 300° West 241 277 7,600 -1,140 Descending Albuquerque Center
11:50AM 33.3431 -112.1081 288° West 230 265 6,400 -1,260 Descending Albuquerque Center
11:51AM 33.3542 -112.1944 279° West 222 255 5,100 -780 Descending Albuquerque Center
11:52AM 33.3969 -112.2353 321° Northwest 230 265 4,900 -600 Descending Albuquerque Center
11:53AM 33.4300 -112.1800 54° Northeast 214 246 3,900 -1,020 Descending Albuquerque Center
11:54AM 33.4289 -112.1147 91° East 196 226 2,800 -1,320 Descending Albuquerque Center
11:55AM 33.4333 -112.0833 80° East 165 190 1,900 -840 Descending Phoenix TRACON
11:56AM 33.4292 -112.0064 94° East 153 176 1,100 -540 Descending Albuquerque Center